Time;durP1;ratioP1;P1;durP2;ratioP2;P2;SDS_P1;SDS_P2;PMS_P1;PMS_P2;Temp;Humidity;BMP_temperature;BMP_pressure;BME280_temperature;BME280_humidity;BME280_pressure;Samples;Min_cycle;Max_cycle;Signal;HPM_P1;HPM_P2
2021/01/15 00:02:03;;;;;;;43.08;20.58;;;1.00;99.90;;;;;;5002244;28;20041;-82
2021/01/15 00:04:30;;;;;;;45.47;21.83;;;1.00;99.90;;;;;;4992144;28;20026;-82
2021/01/15 00:07:02;;;;;;;43.95;21.85;;;1.00;99.90;;;;;;4990383;28;20022;-82
2021/01/15 00:09:28;;;;;;;50.90;22.25;;;1.00;99.90;;;;;;4992141;28;20384;-82
2021/01/15 00:11:53;;;;;;;41.78;21.90;;;0.90;99.90;;;;;;5010052;28;20022;-80
2021/01/15 00:14:19;;;;;;;45.38;22.00;;;0.90;99.90;;;;;;5006741;28;20092;-79
2021/01/15 00:16:44;;;;;;;45.65;22.48;;;0.80;99.90;;;;;;5003666;28;20022;-81
2021/01/15 00:19:11;;;;;;;50.90;22.58;;;0.80;99.90;;;;;;4995641;28;20061;-81
2021/01/15 00:21:47;;;;;;;43.22;21.00;;;0.90;99.90;;;;;;4999729;28;20022;-79
2021/01/15 00:24:14;;;;;;;44.22;22.02;;;0.80;99.90;;;;;;5006062;28;20029;-79
2021/01/15 00:26:40;;;;;;;47.70;22.65;;;0.90;99.90;;;;;;5005207;28;20450;-82
2021/01/15 00:29:06;;;;;;;53.53;23.00;;;0.90;99.90;;;;;;4996283;28;20415;-82
2021/01/15 00:31:39;;;;;;;45.97;20.77;;;0.90;99.90;;;;;;5008840;28;20037;-79
2021/01/15 00:34:16;;;;;;;46.10;19.38;;;0.90;99.90;;;;;;4980988;28;20030;-80
2021/01/15 00:36:45;;;;;;;44.95;21.23;;;1.00;99.90;;;;;;4974733;28;20502;-82
2021/01/15 00:39:15;;;;;;;48.75;22.10;;;1.00;99.90;;;;;;4997833;28;20076;-83
2021/01/15 00:41:43;;;;;;;50.33;21.65;;;1.00;99.90;;;;;;4975145;28;20116;-82
2021/01/15 00:44:09;;;;;;;46.65;20.17;;;1.00;99.90;;;;;;4989890;28;20762;-82
2021/01/15 00:46:36;;;;;;;42.38;20.35;;;1.00;99.90;;;;;;5006035;28;20116;-80
2021/01/15 00:49:09;;;;;;;44.20;19.13;;;1.00;99.90;;;;;;4986282;28;20117;-80
2021/01/15 00:51:36;;;;;;;39.88;20.55;;;1.00;99.90;;;;;;4974891;28;20421;-79
2021/01/15 00:54:03;;;;;;;44.05;20.58;;;1.00;99.90;;;;;;4976361;28;20025;-80
2021/01/15 00:56:29;;;;;;;39.65;20.75;;;1.00;99.90;;;;;;4986481;28;20022;-80
2021/01/15 00:58:54;;;;;;;40.67;20.65;;;1.10;99.90;;;;;;5003634;28;20041;-79
2021/01/15 01:01:22;;;;;;;46.17;21.08;;;1.10;99.90;;;;;;4989598;28;20052;-82
2021/01/15 01:03:49;;;;;;;40.95;19.77;;;1.10;99.90;;;;;;4983925;28;20027;-82
2021/01/15 01:06:19;;;;;;;45.40;19.60;;;1.10;99.90;;;;;;4980919;28;20026;-82
2021/01/15 01:08:45;;;;;;;45.55;19.38;;;1.00;99.90;;;;;;4982123;28;20045;-82
2021/01/15 01:11:31;;;;;;;43.38;19.85;;;1.10;99.90;;;;;;4990175;28;20109;-82
2021/01/15 01:13:57;;;;;;;39.42;18.70;;;1.10;99.90;;;;;;5008108;28;20057;-82
2021/01/15 01:16:24;;;;;;;42.38;17.45;;;1.10;99.90;;;;;;4993547;28;20030;-82
2021/01/15 01:18:50;;;;;;;43.70;20.17;;;1.10;99.90;;;;;;4990947;28;20049;-82
2021/01/15 01:21:16;;;;;;;40.28;18.95;;;1.20;99.90;;;;;;5003317;28;20055;-79
2021/01/15 01:23:43;;;;;;;40.47;17.75;;;1.20;99.90;;;;;;4987009;28;20030;-80
2021/01/15 01:26:09;;;;;;;42.60;18.23;;;1.20;99.90;;;;;;5014396;28;20071;-82
2021/01/15 01:28:35;;;;;;;39.30;19.08;;;1.20;99.90;;;;;;5021467;28;20100;-82
2021/01/15 01:31:01;;;;;;;36.10;16.58;;;1.20;99.90;;;;;;5004531;28;20034;-79
2021/01/15 01:33:27;;;;;;;41.47;20.23;;;1.30;99.90;;;;;;4996315;28;20018;-80
2021/01/15 01:35:52;;;;;;;47.35;18.83;;;1.30;99.90;;;;;;4993806;28;20053;-82
2021/01/15 01:38:18;;;;;;;40.70;18.85;;;1.30;99.90;;;;;;5004427;28;20097;-82
2021/01/15 01:40:45;;;;;;;42.00;19.38;;;1.30;99.90;;;;;;4996778;28;20076;-82
2021/01/15 01:43:11;;;;;;;43.47;18.45;;;1.30;99.90;;;;;;4998298;28;21538;-82
2021/01/15 01:45:37;;;;;;;38.72;18.65;;;1.30;99.90;;;;;;4997347;28;20033;-80
2021/01/15 01:48:03;;;;;;;36.90;17.83;;;1.40;99.90;;;;;;4987678;28;20022;-80
2021/01/15 01:50:30;;;;;;;37.95;19.48;;;1.40;99.90;;;;;;4994333;28;20055;-82
2021/01/15 01:52:57;;;;;;;37.80;19.33;;;1.40;99.90;;;;;;4983297;28;20018;-82
2021/01/15 01:55:23;;;;;;;50.67;19.58;;;1.40;99.90;;;;;;4985200;28;20034;-82
2021/01/15 01:57:49;;;;;;;33.92;17.63;;;1.40;99.90;;;;;;5008804;28;20025;-82
2021/01/15 02:00:15;;;;;;;43.22;17.35;;;1.40;99.90;;;;;;5013698;28;20034;-83
2021/01/15 02:02:41;;;;;;;34.15;17.20;;;1.50;99.90;;;;;;5010865;28;20151;-80
2021/01/15 02:05:08;;;;;;;36.55;15.90;;;1.50;99.90;;;;;;4979334;28;20117;-80
2021/01/15 02:07:33;;;;;;;35.65;15.63;;;1.60;99.90;;;;;;4982829;28;20069;-80
2021/01/15 02:10:08;;;;;;;34.42;16.38;;;1.60;99.90;;;;;;4984982;28;20471;-82
2021/01/15 02:12:39;;;;;;;40.95;16.80;;;1.60;99.90;;;;;;4999393;28;20131;-83
2021/01/15 02:15:15;;;;;;;38.42;17.55;;;1.60;99.90;;;;;;4992218;28;20487;-80
2021/01/15 02:17:49;;;;;;;27.92;15.75;;;1.60;99.90;;;;;;4985384;28;20045;-80
2021/01/15 02:20:50;;;;;;;30.35;15.88;;;1.70;99.90;;;;;;4994304;28;20042;-82
2021/01/15 02:23:37;;;;;;;33.35;14.00;;;1.70;99.90;;;;;;4978653;28;20379;-82
2021/01/15 02:26:06;;;;;;;32.88;16.05;;;1.70;99.90;;;;;;4993080;28;20022;-80
2021/01/15 02:29:09;;;;;;;42.58;16.42;;;1.70;99.90;;;;;;5009253;28;20430;-80
2021/01/15 02:31:56;;;;;;;36.70;16.60;;;1.70;99.90;;;;;;5005534;28;20025;-80
2021/01/15 02:34:55;;;;;;;37.08;19.08;;;1.70;99.90;;;;;;4988827;28;20034;-80
2021/01/15 02:37:27;;;;;;;29.45;15.13;;;1.70;99.90;;;;;;4990316;28;20045;-83
2021/01/15 02:40:14;;;;;;;32.83;15.88;;;1.70;99.90;;;;;;4995719;28;20042;-80
2021/01/15 02:42:41;;;;;;;40.45;16.38;;;1.70;99.90;;;;;;4998330;28;20193;-79
2021/01/15 02:45:12;;;;;;;37.00;16.33;;;1.70;99.90;;;;;;4999196;28;20022;-80
2021/01/15 02:47:37;;;;;;;40.72;17.42;;;1.70;99.90;;;;;;5002303;28;20026;-80
2021/01/15 02:50:04;;;;;;;34.88;17.48;;;1.60;99.90;;;;;;4995344;28;20034;-82
2021/01/15 02:52:31;;;;;;;37.65;17.55;;;1.60;99.90;;;;;;4991975;28;20014;-82
2021/01/15 02:54:56;;;;;;;37.08;18.23;;;1.60;99.90;;;;;;4994252;28;20038;-80
2021/01/15 02:57:22;;;;;;;37.03;17.23;;;1.60;99.90;;;;;;5011289;28;20022;-81
2021/01/15 02:59:48;;;;;;;35.05;16.77;;;1.60;99.90;;;;;;5026477;28;20425;-80
2021/01/15 03:02:39;;;;;;;46.28;18.67;;;1.60;99.90;;;;;;5021314;28;20029;-80
2021/01/15 03:05:21;;;;;;;38.00;16.67;;;1.70;99.90;;;;;;5011428;28;20125;-80
2021/01/15 03:07:50;;;;;;;36.83;17.63;;;1.70;99.90;;;;;;5005230;28;20030;-80
2021/01/15 03:10:20;;;;;;;46.70;18.98;;;1.70;99.90;;;;;;5008657;28;20083;-80
2021/01/15 03:12:47;;;;;;;36.53;16.73;;;1.70;99.90;;;;;;5007137;28;20032;-80
2021/01/15 03:15:14;;;;;;;42.33;17.67;;;1.60;99.90;;;;;;5007402;28;20033;-80
2021/01/15 03:17:45;;;;;;;33.55;16.33;;;1.60;99.90;;;;;;5009015;28;20378;-80
2021/01/15 03:20:11;;;;;;;38.42;18.20;;;1.60;99.90;;;;;;4992204;28;20042;-80
2021/01/15 03:22:38;;;;;;;32.40;16.58;;;1.60;99.90;;;;;;4995854;28;20430;-80
2021/01/15 03:25:05;;;;;;;40.92;17.85;;;1.60;99.90;;;;;;5009295;28;20021;-80
2021/01/15 03:27:48;;;;;;;37.00;18.13;;;1.60;99.90;;;;;;5007163;28;20053;-80
2021/01/15 03:30:19;;;;;;;39.78;18.27;;;1.70;99.90;;;;;;5005272;28;20030;-80
2021/01/15 03:32:46;;;;;;;38.88;19.25;;;1.60;99.90;;;;;;5008847;28;20024;-80
2021/01/15 03:35:24;;;;;;;50.13;20.02;;;1.60;99.90;;;;;;4997039;28;20105;-80
2021/01/15 03:38:00;;;;;;;37.75;19.40;;;1.60;99.90;;;;;;4985293;28;20126;-80
2021/01/15 03:40:28;;;;;;;43.75;20.52;;;1.60;99.90;;;;;;4974470;28;20030;-80
2021/01/15 03:42:53;;;;;;;41.33;19.77;;;1.60;99.90;;;;;;4999601;28;20030;-80
2021/01/15 03:45:19;;;;;;;44.00;21.33;;;1.60;99.90;;;;;;5011208;28;20030;-80
2021/01/15 03:47:44;;;;;;;40.88;18.77;;;1.60;99.90;;;;;;4981932;28;20456;-80
2021/01/15 03:50:11;;;;;;;47.80;22.25;;;1.60;99.90;;;;;;4974897;28;20487;-80
2021/01/15 03:52:36;;;;;;;48.88;22.23;;;1.60;99.90;;;;;;4980855;28;20109;-80
2021/01/15 03:55:03;;;;;;;48.30;21.90;;;1.60;99.90;;;;;;5006854;28;20066;-80
2021/01/15 03:57:29;;;;;;;43.13;20.83;;;1.60;99.90;;;;;;5001535;28;20025;-80
2021/01/15 03:59:55;;;;;;;43.22;21.33;;;1.60;99.90;;;;;;4990449;28;20044;-83
2021/01/15 04:02:20;;;;;;;46.00;20.65;;;1.60;99.90;;;;;;4992487;28;20117;-83
2021/01/15 04:04:49;;;;;;;51.92;22.23;;;1.60;99.90;;;;;;4995208;28;20081;-80
2021/01/15 04:07:18;;;;;;;44.92;20.73;;;1.60;99.90;;;;;;4993196;28;20077;-80
2021/01/15 04:09:44;;;;;;;45.83;21.33;;;1.60;99.90;;;;;;4978800;28;20301;-80
2021/01/15 04:12:11;;;;;;;44.90;21.92;;;1.60;99.90;;;;;;4987373;28;20084;-80
2021/01/15 04:14:38;;;;;;;45.67;22.30;;;1.60;99.90;;;;;;4991689;28;20037;-80
2021/01/15 04:17:04;;;;;;;54.55;22.08;;;1.70;99.90;;;;;;4984957;28;20056;-80
2021/01/15 04:19:29;;;;;;;49.30;23.73;;;1.70;99.90;;;;;;4991623;28;20491;-80
2021/01/15 04:21:55;;;;;;;52.15;25.52;;;1.60;99.90;;;;;;4973949;28;20023;-80
2021/01/15 04:24:21;;;;;;;54.45;23.23;;;1.60;99.90;;;;;;4976033;28;20031;-80
2021/01/15 04:26:57;;;;;;;50.70;23.85;;;1.60;99.90;;;;;;4999469;28;20046;-80
2021/01/15 04:29:23;;;;;;;49.83;22.45;;;1.60;99.90;;;;;;5003841;28;20104;-80
2021/01/15 04:31:49;;;;;;;49.50;22.67;;;1.70;99.90;;;;;;4991315;28;20018;-80
2021/01/15 04:34:15;;;;;;;54.28;23.33;;;1.70;99.90;;;;;;4980267;28;20034;-80
2021/01/15 04:36:43;;;;;;;47.17;23.40;;;1.70;99.90;;;;;;4991358;28;20026;-80
2021/01/15 04:39:09;;;;;;;50.47;23.05;;;1.70;99.90;;;;;;4987559;28;20035;-80
2021/01/15 04:41:35;;;;;;;48.15;23.73;;;1.70;99.90;;;;;;4978850;28;20426;-80
2021/01/15 04:44:02;;;;;;;53.45;23.35;;;1.70;99.90;;;;;;5013895;28;20037;-80
2021/01/15 04:46:28;;;;;;;52.50;24.42;;;1.70;99.90;;;;;;4994568;28;20026;-80
2021/01/15 04:48:55;;;;;;;49.63;23.90;;;1.60;99.90;;;;;;4983882;28;20422;-80
2021/01/15 04:51:23;;;;;;;55.47;25.13;;;1.70;99.90;;;;;;4996600;28;20475;-80
2021/01/15 04:54:03;;;;;;;54.92;25.40;;;1.70;99.90;;;;;;4973046;28;20577;-80
2021/01/15 04:56:36;;;;;;;55.28;24.77;;;1.70;99.90;;;;;;4981623;28;20080;-80
2021/01/15 04:59:05;;;;;;;51.95;24.65;;;1.70;99.90;;;;;;5006335;28;20026;-80
2021/01/15 05:01:42;;;;;;;58.20;24.73;;;1.70;99.90;;;;;;4990990;28;20501;-80
2021/01/15 05:04:09;;;;;;;52.58;24.92;;;1.70;99.90;;;;;;4986031;28;20026;-80
2021/01/15 05:06:47;;;;;;;49.63;22.83;;;1.70;99.90;;;;;;4982485;28;20034;-80
2021/01/15 05:09:17;;;;;;;52.38;23.35;;;1.80;99.90;;;;;;4979314;28;20023;-81
2021/01/15 05:11:43;;;;;;;50.53;24.02;;;1.70;99.90;;;;;;4951864;28;20043;-80
2021/01/15 05:14:11;;;;;;;50.65;23.67;;;1.70;99.90;;;;;;4949576;28;20521;-80
2021/01/15 05:16:38;;;;;;;52.50;25.20;;;1.80;99.90;;;;;;4933696;28;20039;-80
2021/01/15 05:19:05;;;;;;;52.33;24.15;;;1.80;99.90;;;;;;4933859;28;20059;-80
2021/01/15 05:21:32;;;;;;;49.30;23.95;;;1.80;99.90;;;;;;4938537;28;20032;-81
2021/01/15 05:23:58;;;;;;;47.65;22.08;;;1.80;99.90;;;;;;4958873;28;20066;-80
2021/01/15 05:26:24;;;;;;;46.17;22.23;;;1.80;99.90;;;;;;4955912;28;20023;-80
2021/01/15 05:28:51;;;;;;;48.72;23.20;;;1.80;99.90;;;;;;4947281;28;20049;-80
2021/01/15 05:31:16;;;;;;;54.47;26.20;;;1.80;99.90;;;;;;4962037;28;20039;-80
2021/01/15 05:34:13;;;;;;;48.03;21.85;;;1.80;99.90;;;;;;4946212;28;20385;-80
2021/01/15 05:36:38;;;;;;;47.20;23.67;;;1.80;99.90;;;;;;4957106;28;20133;-79
2021/01/15 05:39:24;;;;;;;48.08;24.20;;;1.80;99.90;;;;;;4948450;28;20173;-80
2021/01/15 05:42:00;;;;;;;50.78;22.05;;;1.80;99.90;;;;;;4947869;28;20046;-80
2021/01/15 05:44:31;;;;;;;55.22;25.10;;;1.70;99.90;;;;;;4944374;28;20077;-80
2021/01/15 05:46:59;;;;;;;;;;;1.70;99.90;;;;;;4949516;28;20046;-80
2021/01/15 05:49:29;;;;;;;47.03;21.23;;;1.70;99.90;;;;;;4973718;28;19909;-80
2021/01/15 05:52:07;;;;;;;50.25;22.65;;;1.70;99.90;;;;;;4986031;28;20037;-80
2021/01/15 05:54:36;;;;;;;46.25;19.67;;;1.70;99.90;;;;;;4995935;28;20076;-80
2021/01/15 05:57:03;;;;;;;51.83;22.75;;;1.70;99.90;;;;;;4983675;28;20034;-80
2021/01/15 05:59:28;;;;;;;49.47;23.55;;;1.70;99.90;;;;;;5003184;28;20037;-80
2021/01/15 06:01:59;;;;;;;50.22;21.50;;;1.70;99.90;;;;;;4992125;28;20030;-80
2021/01/15 06:04:39;;;;;;;47.70;23.88;;;1.70;99.90;;;;;;4982470;28;20045;-80
2021/01/15 06:07:08;;;;;;;57.50;24.27;;;1.70;99.90;;;;;;4985263;28;20437;-80
2021/01/15 06:09:38;;;;;;;52.45;22.95;;;1.70;99.90;;;;;;4988268;28;20117;-80
2021/01/15 06:12:15;;;;;;;46.58;22.30;;;1.70;99.90;;;;;;4984447;28;20026;-80
2021/01/15 06:14:58;;;;;;;49.15;21.05;;;1.70;99.90;;;;;;4990996;28;20026;-80
2021/01/15 06:17:25;;;;;;;52.58;23.73;;;1.70;99.90;;;;;;4979702;28;20026;-80
2021/01/15 06:19:51;;;;;;;43.42;21.30;;;1.70;99.90;;;;;;5004143;28;20035;-80
2021/01/15 06:22:44;;;;;;;51.63;22.92;;;1.70;99.90;;;;;;4993544;28;20762;-80
2021/01/15 06:25:09;;;;;;;57.05;24.60;;;1.70;99.90;;;;;;4985226;28;20034;-80
2021/01/15 06:27:40;;;;;;;44.70;21.27;;;1.70;99.90;;;;;;4994730;28;20038;-80
2021/01/15 06:30:22;;;;;;;44.97;21.93;;;1.70;99.90;;;;;;5001276;28;20042;-80
2021/01/15 06:32:48;;;;;;;44.95;21.40;;;1.70;99.90;;;;;;5003548;28;20026;-80
2021/01/15 06:35:23;;;;;;;45.67;22.45;;;1.70;99.90;;;;;;5005530;28;20048;-80
2021/01/15 06:37:58;;;;;;;47.40;22.33;;;1.70;99.90;;;;;;5009902;28;20073;-80
2021/01/15 06:40:34;;;;;;;50.05;23.63;;;1.70;99.90;;;;;;5004959;28;20029;-80
2021/01/15 06:43:06;;;;;;;52.90;22.65;;;1.70;99.90;;;;;;5009072;28;20022;-80
2021/01/15 06:45:47;;;;;;;57.75;24.27;;;1.80;99.90;;;;;;5007657;28;20121;-81
2021/01/15 06:48:16;;;;;;;52.15;22.50;;;1.80;99.90;;;;;;5019812;28;20454;-81
2021/01/15 06:50:44;;;;;;;52.78;24.42;;;1.80;99.90;;;;;;5010033;28;20037;-80
2021/01/15 06:53:34;;;;;;;49.33;24.55;;;1.70;99.90;;;;;;4998149;28;20092;-80
2021/01/15 06:56:04;;;;;;;57.58;24.88;;;1.80;99.90;;;;;;4986392;28;20081;-80
2021/01/15 06:58:36;;;;;;;47.47;19.10;;;1.70;99.90;;;;;;5004357;28;20116;-81
2021/01/15 07:01:16;;;;;;;51.63;20.23;;;1.80;99.90;;;;;;4998900;28;20030;-80
2021/01/15 07:04:20;;;;;;;60.60;22.75;;;1.70;99.90;;;;;;5000731;28;20395;-80
2021/01/15 07:07:12;;;;;;;44.33;20.73;;;1.70;99.90;;;;;;4997252;28;20042;-80
2021/01/15 07:09:40;;;;;;;57.65;20.63;;;1.70;99.90;;;;;;4999151;28;20093;-81
2021/01/15 07:12:09;;;;;;;48.33;20.15;;;1.70;99.90;;;;;;5000199;28;20363;-80
2021/01/15 07:14:56;;;;;;;44.47;19.92;;;1.70;99.90;;;;;;5003866;28;20121;-80
2021/01/15 07:17:29;;;;;;;43.53;21.17;;;1.70;99.90;;;;;;5001469;28;20471;-80
2021/01/15 07:20:13;;;;;;;45.55;21.25;;;1.70;99.90;;;;;;5005011;28;20042;-81
2021/01/15 07:22:53;;;;;;;52.45;21.77;;;1.60;99.90;;;;;;5001381;28;20030;-81
2021/01/15 07:25:21;;;;;;;44.45;20.88;;;1.60;99.90;;;;;;5001842;28;20033;-80
2021/01/15 07:27:47;;;;;;;44.20;21.30;;;1.60;99.90;;;;;;5004297;28;20053;-81
2021/01/15 07:30:30;;;;;;;38.38;18.95;;;1.60;99.90;;;;;;5005701;28;20042;-81
2021/01/15 07:32:57;;;;;;;44.08;20.55;;;1.60;99.90;;;;;;4999925;28;20034;-80
2021/01/15 07:35:27;;;;;;;39.88;18.55;;;1.60;99.90;;;;;;4998091;28;20090;-81
2021/01/15 07:38:10;;;;;;;45.70;19.70;;;1.60;99.90;;;;;;4999895;28;20018;-80
2021/01/15 07:40:36;;;;;;;40.83;20.17;;;1.60;99.90;;;;;;4998837;28;20096;-81
2021/01/15 07:43:02;;;;;;;37.22;16.88;;;1.60;99.90;;;;;;5001361;28;20042;-80
2021/01/15 07:45:28;;;;;;;41.20;19.10;;;1.60;99.90;;;;;;5000918;28;20038;-81
2021/01/15 07:48:14;;;;;;;41.85;18.23;;;1.60;99.90;;;;;;5003083;28;20129;-80
2021/01/15 07:50:43;;;;;;;43.85;19.77;;;1.60;99.90;;;;;;5003357;28;20121;-80
2021/01/15 07:53:11;;;;;;;46.58;20.45;;;1.60;99.90;;;;;;5000463;28;20082;-81
2021/01/15 07:56:06;;;;;;;50.63;20.98;;;1.60;99.90;;;;;;5001084;28;20021;-81
2021/01/15 07:58:37;;;;;;;38.10;18.15;;;1.60;99.90;;;;;;4943999;28;20043;-80
2021/01/15 08:01:21;;;;;;;;;;;1.60;99.90;;;;;;4944984;28;20187;-80
2021/01/15 08:03:58;;;;;;;36.70;16.85;;;1.60;99.90;;;;;;4942261;28;19976;-80
2021/01/15 08:06:25;;;;;;;39.95;17.50;;;1.60;99.90;;;;;;4945028;28;20030;-80
2021/01/15 08:09:08;;;;;;;43.72;20.13;;;1.60;99.90;;;;;;4944755;28;20540;-81
2021/01/15 08:11:35;;;;;;;39.80;19.10;;;1.60;99.90;;;;;;4941033;28;20509;-81
2021/01/15 08:14:15;;;;;;;44.45;19.77;;;1.60;99.90;;;;;;4926879;29;20031;-81
2021/01/15 08:16:42;;;;;;;40.58;18.00;;;1.50;99.90;;;;;;4925068;28;20576;-80
2021/01/15 08:19:09;;;;;;;35.75;18.95;;;1.50;99.90;;;;;;4926051;28;20042;-81
2021/01/15 08:21:35;;;;;;;41.17;19.77;;;1.60;99.90;;;;;;4932386;28;20661;-81
2021/01/15 08:24:02;;;;;;;34.92;16.80;;;1.50;99.90;;;;;;4928397;28;20023;-80
2021/01/15 08:26:35;;;;;;;43.65;18.17;;;1.50;99.90;;;;;;4931025;28;20041;-81
2021/01/15 08:29:03;;;;;;;33.30;14.35;;;1.50;99.90;;;;;;4913228;29;20106;-80
2021/01/15 08:31:29;;;;;;;41.40;19.30;;;1.50;99.90;;;;;;4925462;28;20041;-81
2021/01/15 08:34:19;;;;;;;39.25;18.05;;;1.50;99.90;;;;;;4928507;28;20023;-80
2021/01/15 08:36:49;;;;;;;31.98;13.50;;;1.50;99.90;;;;;;4987012;28;20077;-81
2021/01/15 08:39:14;;;;;;;36.50;19.05;;;1.50;99.90;;;;;;4997915;28;20026;-81
2021/01/15 08:41:40;;;;;;;40.78;19.88;;;1.40;99.90;;;;;;4996201;28;20037;-83
2021/01/15 08:44:07;;;;;;;34.78;16.52;;;1.40;99.90;;;;;;4999575;28;20104;-83
2021/01/15 08:46:34;;;;;;;36.97;18.73;;;1.40;99.90;;;;;;4996091;28;20172;-81
2021/01/15 08:49:07;;;;;;;43.13;19.70;;;1.40;99.90;;;;;;4994377;28;20022;-80
2021/01/15 08:51:35;;;;;;;34.20;17.08;;;1.40;99.90;;;;;;4997088;28;20085;-81
2021/01/15 08:54:05;;;;;;;46.10;15.80;;;1.40;99.90;;;;;;4992316;28;20046;-80
2021/01/15 08:56:39;;;;;;;44.28;20.58;;;1.40;99.90;;;;;;4995315;28;20041;-80
2021/01/15 08:59:10;;;;;;;35.15;15.00;;;1.40;99.90;;;;;;4996540;28;20120;-80
2021/01/15 09:01:41;;;;;;;42.05;18.20;;;1.40;99.90;;;;;;4988884;28;20045;-81
2021/01/15 09:04:08;;;;;;;45.47;20.55;;;1.50;99.90;;;;;;4998534;28;20091;-80
2021/01/15 09:06:35;;;;;;;42.15;20.73;;;1.50;99.90;;;;;;4997283;28;20569;-80
2021/01/15 09:09:03;;;;;;;31.85;15.88;;;1.50;99.90;;;;;;5001947;28;20030;-80
2021/01/15 09:11:32;;;;;;;35.85;18.33;;;1.50;99.90;;;;;;5013708;28;20038;-80
2021/01/15 09:13:58;;;;;;;33.88;16.70;;;1.50;99.90;;;;;;4999517;28;20030;-80
2021/01/15 09:16:25;;;;;;;37.47;15.00;;;1.40;99.90;;;;;;5003262;28;20644;-80
2021/01/15 09:18:52;;;;;;;42.17;18.25;;;1.30;99.90;;;;;;4991890;28;20110;-81
2021/01/15 09:21:20;;;;;;;39.15;17.83;;;1.30;99.90;;;;;;4996738;28;20411;-81
2021/01/15 09:23:46;;;;;;;36.53;16.48;;;1.30;99.90;;;;;;4998149;28;20022;-81
2021/01/15 09:26:15;;;;;;;47.95;17.27;;;1.30;99.90;;;;;;4994801;28;20035;-81
2021/01/15 09:28:40;;;;;;;27.98;13.68;;;1.30;99.90;;;;;;4999140;28;20046;-81
2021/01/15 09:31:06;;;;;;;43.53;18.23;;;1.30;99.90;;;;;;4998358;28;20640;-80
2021/01/15 09:33:32;;;;;;;38.25;15.48;;;1.30;99.90;;;;;;4999004;28;20026;-80
2021/01/15 09:35:58;;;;;;;38.50;12.77;;;1.30;99.90;;;;;;4999403;28;20562;-80
2021/01/15 09:38:23;;;;;;;37.17;16.20;;;1.40;99.90;;;;;;4999256;28;20040;-80
2021/01/15 09:40:49;;;;;;;35.03;16.23;;;1.40;99.90;;;;;;4999699;28;20567;-80
2021/01/15 09:43:18;;;;;;;32.33;15.80;;;1.30;99.90;;;;;;4998619;28;20062;-80
2021/01/15 09:45:44;;;;;;;34.45;16.25;;;1.30;99.90;;;;;;5003158;28;20115;-83
2021/01/15 09:48:10;;;;;;;34.28;13.60;;;1.30;99.90;;;;;;5004150;28;20699;-83
2021/01/15 09:50:36;;;;;;;33.55;14.50;;;1.30;99.90;;;;;;5000345;28;20077;-81
2021/01/15 09:53:01;;;;;;;35.08;13.55;;;1.30;99.90;;;;;;4999687;28;20480;-81
2021/01/15 09:55:27;;;;;;;30.50;14.60;;;1.30;99.90;;;;;;5002546;28;20063;-81
2021/01/15 09:57:52;;;;;;;22.20;10.57;;;1.30;99.90;;;;;;5001535;28;20104;-81
2021/01/15 10:00:18;;;;;;;31.90;15.02;;;1.40;99.90;;;;;;4997261;28;20064;-80
2021/01/15 10:02:44;;;;;;;30.10;12.88;;;1.30;99.90;;;;;;5000186;28;20092;-80
2021/01/15 10:05:10;;;;;;;30.52;15.68;;;1.30;99.90;;;;;;5012738;28;20038;-80
2021/01/15 10:07:36;;;;;;;26.95;11.38;;;1.30;99.90;;;;;;4996965;28;20027;-80
2021/01/15 10:10:03;;;;;;;33.03;14.85;;;1.30;99.90;;;;;;4992979;28;20762;-80
2021/01/15 10:12:28;;;;;;;38.33;16.33;;;1.30;99.90;;;;;;4999609;28;20034;-80
2021/01/15 10:14:54;;;;;;;23.17;9.85;;;1.40;99.90;;;;;;5003315;28;20037;-80
2021/01/15 10:17:19;;;;;;;37.08;15.32;;;1.40;99.90;;;;;;4998268;28;20053;-80
2021/01/15 10:19:45;;;;;;;34.10;14.13;;;1.40;99.90;;;;;;5000863;28;20054;-80
2021/01/15 10:22:10;;;;;;;39.17;17.17;;;1.40;99.90;;;;;;5001609;28;20029;-80
2021/01/15 10:24:36;;;;;;;36.30;14.25;;;1.50;99.90;;;;;;4996349;28;20431;-80
2021/01/15 10:27:02;;;;;;;31.20;13.43;;;1.50;99.90;;;;;;4996980;28;20046;-81
2021/01/15 10:29:27;;;;;;;27.55;13.75;;;1.50;99.90;;;;;;4985337;28;20034;-80
2021/01/15 10:31:56;;;;;;;29.45;13.95;;;1.40;99.90;;;;;;4984940;28;20038;-80
2021/01/15 10:34:22;;;;;;;41.45;15.32;;;1.30;99.90;;;;;;4992376;28;20042;-80
2021/01/15 10:36:49;;;;;;;33.00;14.32;;;1.30;99.90;;;;;;4986783;28;20018;-80
2021/01/15 10:39:15;;;;;;;32.13;13.50;;;1.40;99.90;;;;;;4984719;28;20034;-80
2021/01/15 10:41:44;;;;;;;32.60;13.40;;;1.30;99.90;;;;;;4976012;28;20045;-83
2021/01/15 10:44:11;;;;;;;53.10;13.73;;;1.30;99.90;;;;;;4983576;28;20034;-83
2021/01/15 10:46:41;;;;;;;30.38;12.10;;;1.30;99.90;;;;;;4990388;28;20037;-81
2021/01/15 10:49:11;;;;;;;30.92;12.73;;;1.30;99.90;;;;;;4982794;28;20129;-80
2021/01/15 10:51:42;;;;;;;29.15;11.52;;;1.30;99.90;;;;;;5003132;28;20352;-83
2021/01/15 10:54:08;;;;;;;24.92;8.85;;;1.30;99.90;;;;;;4996924;28;20026;-82
2021/01/15 10:56:39;;;;;;;41.25;12.80;;;1.20;99.90;;;;;;4985081;28;20030;-80
2021/01/15 10:59:09;;;;;;;31.50;11.45;;;1.20;99.90;;;;;;4987277;28;20406;-80
2021/01/15 11:01:39;;;;;;;55.78;14.07;;;1.20;99.90;;;;;;4987346;28;20080;-80
2021/01/15 11:04:07;;;;;;;59.17;14.18;;;1.30;99.90;;;;;;4986524;28;20586;-80
2021/01/15 11:06:47;;;;;;;40.17;13.60;;;1.40;99.90;;;;;;4991588;28;20033;-80
2021/01/15 11:09:16;;;;;;;54.13;14.00;;;1.40;99.90;;;;;;4990525;28;20036;-81
2021/01/15 11:11:46;;;;;;;29.52;12.77;;;1.50;99.90;;;;;;4988082;28;20045;-81
2021/01/15 11:14:13;;;;;;;28.95;10.13;;;1.50;99.90;;;;;;4986567;28;20033;-81
2021/01/15 11:16:39;;;;;;;36.10;11.30;;;1.50;99.90;;;;;;4998084;28;20385;-81
2021/01/15 11:19:05;;;;;;;34.90;11.98;;;1.40;99.90;;;;;;4992626;28;20858;-81
2021/01/15 11:21:31;;;;;;;44.03;13.00;;;1.50;99.90;;;;;;4987842;28;20041;-81
2021/01/15 11:23:57;;;;;;;31.75;11.82;;;1.50;99.90;;;;;;4977478;28;20102;-81
2021/01/15 11:26:28;;;;;;;36.30;10.10;;;1.60;99.90;;;;;;4990864;28;20053;-80
2021/01/15 11:28:55;;;;;;;24.98;8.93;;;1.60;99.90;;;;;;5001094;28;20174;-80
2021/01/15 11:31:20;;;;;;;21.83;9.43;;;1.50;99.90;;;;;;4982746;28;20045;-81
2021/01/15 11:33:47;;;;;;;18.98;8.68;;;1.50;99.90;;;;;;4998695;28;20394;-80
2021/01/15 11:36:13;;;;;;;22.45;8.07;;;1.50;99.90;;;;;;4982162;28;20042;-80
2021/01/15 11:38:39;;;;;;;27.95;10.07;;;1.40;99.90;;;;;;4998666;28;20026;-81
2021/01/15 11:41:05;;;;;;;19.23;8.43;;;1.40;99.90;;;;;;4977189;28;20175;-80
2021/01/15 11:43:33;;;;;;;19.38;9.35;;;1.40;99.90;;;;;;4998680;28;20044;-81
2021/01/15 11:46:00;;;;;;;21.77;9.20;;;1.40;99.90;;;;;;4982498;28;20045;-80
2021/01/15 11:48:26;;;;;;;20.55;8.90;;;1.40;99.90;;;;;;4985747;28;20048;-81
2021/01/15 11:50:54;;;;;;;41.45;11.15;;;1.50;99.90;;;;;;4988082;28;20033;-81
2021/01/15 11:53:19;;;;;;;22.98;8.55;;;1.50;99.90;;;;;;4980176;28;20034;-81
2021/01/15 11:55:51;;;;;;;24.75;6.63;;;1.50;99.90;;;;;;4997714;28;20055;-81
2021/01/15 11:58:23;;;;;;;14.98;7.47;;;1.50;99.90;;;;;;4976349;28;20029;-80
2021/01/15 12:00:51;;;;;;;31.88;8.50;;;1.40;99.90;;;;;;4998245;28;20107;-80
2021/01/15 12:03:18;;;;;;;28.45;8.55;;;1.50;99.90;;;;;;4998572;28;20033;-81
2021/01/15 12:05:49;;;;;;;18.88;9.05;;;1.50;99.90;;;;;;4981861;28;20034;-84
2021/01/15 12:08:15;;;;;;;25.05;8.80;;;1.60;99.90;;;;;;5006184;28;20075;-84
2021/01/15 12:10:41;;;;;;;17.55;8.73;;;1.60;99.90;;;;;;4967950;28;20027;-83
2021/01/15 12:13:07;;;;;;;29.25;8.77;;;1.70;99.90;;;;;;4971453;28;20047;-83
2021/01/15 12:15:34;;;;;;;33.08;8.45;;;1.70;99.90;;;;;;4971219;28;20051;-81
2021/01/15 12:17:59;;;;;;;13.85;6.18;;;1.80;99.90;;;;;;4955199;28;20448;-81
2021/01/15 12:20:26;;;;;;;16.35;7.90;;;1.70;99.90;;;;;;4971635;28;20142;-81
2021/01/15 12:22:51;;;;;;;21.33;8.95;;;1.80;99.90;;;;;;4954455;28;20029;-81
2021/01/15 12:25:17;;;;;;;13.00;6.90;;;1.80;99.90;;;;;;4965749;28;20042;-81
2021/01/15 12:27:43;;;;;;;16.52;7.28;;;1.80;99.90;;;;;;4973192;28;20154;-81
2021/01/15 12:30:09;;;;;;;28.38;8.15;;;1.80;99.90;;;;;;4968450;28;20040;-81
2021/01/15 12:32:36;;;;;;;36.03;8.40;;;1.90;99.90;;;;;;4983256;28;20387;-80
2021/01/15 12:35:03;;;;;;;14.90;7.68;;;1.90;99.90;;;;;;4966906;28;20034;-82
2021/01/15 12:37:29;;;;;;;23.25;8.07;;;2.00;99.90;;;;;;4967971;28;20922;-84
2021/01/15 12:39:55;;;;;;;13.27;6.57;;;2.10;99.90;;;;;;4981570;28;20047;-81
2021/01/15 12:42:21;;;;;;;15.10;5.93;;;2.00;99.90;;;;;;4995306;28;20033;-81
2021/01/15 12:44:47;;;;;;;17.42;7.78;;;2.10;99.90;;;;;;4999887;28;20034;-84
2021/01/15 12:47:13;;;;;;;20.08;6.78;;;2.20;99.90;;;;;;5000494;28;20112;-84
2021/01/15 12:49:39;;;;;;;12.93;6.60;;;2.40;99.90;;;;;;4984501;28;20039;-83
2021/01/15 12:52:05;;;;;;;26.77;7.65;;;2.40;99.90;;;;;;5000072;28;20049;-81